Folla — LLPD — position and weather

sailwx.info

Track history (hours):
 
Tides and Currents Weather Stations Pressure Air Temp Water Temp Dewpoint Dewpoint Depression Visibility Wind Speed Wind Dir Waves Ship Positions

Folla

Last reported at 2015-Jul-07 01:33 UTC. Time now 2015-Jul-07 02:31 UTC.
Position N 64°52' E 011°17'.

Length 52 m; draft 5 m.

Type: Cargo ship. MMSI: 258253000.

Date/timePositionNaut miles runAvg speedWind from/ knotsBaromVisibWave heightAir tempDewpointWater temp
2015-Jul-07 01:33N 64°52' E 011°17'0 0.0
2015-Jul-07 00:33N 64°52' E 011°17'0 0.0
2015-Jul-06 23:33N 64°52' E 011°17'0 0.0
2015-Jul-06 22:33N 64°52' E 011°17'0 0.0
2015-Jul-06 21:33N 64°52' E 011°17'0 0.0
2015-Jul-06 20:33N 64°52' E 011°17'0 0.0
2015-Jul-06 19:33N 64°52' E 011°17'0 0.0
2015-Jul-06 18:33N 64°52' E 011°17'0 0.0
2015-Jul-06 17:33N 64°52' E 011°17'0 0.0
2015-Jul-06 16:33N 64°52' E 011°17'0 0.0
2015-Jul-06 15:33N 64°52' E 011°17'0 0.0
2015-Jul-06 14:33N 64°52' E 011°17'0 0.0
2015-Jul-06 13:33N 64°52' E 011°17'0 0.0
2015-Jul-06 12:33N 64°52' E 011°17'0 0.0
2015-Jul-06 11:33N 64°52' E 011°17'9 8.9
2015-Jul-06 10:33N 64°58' E 011°32'1111.2
2015-Jul-06 09:33N 65°07' E 011°48'5711.3
2015-Jul-06 04:31N 66°00' E 012°32'2211.3
2015-Jul-06 02:33N 66°20' E 012°57'1110.5
2015-Jul-06 01:33N 66°31' E 013°00'14 6.7
2015-Jul-05 23:32N 66°43' E 013°12'1111.0
2015-Jul-05 22:33N 66°54' E 013°20'1111.1
2015-Jul-05 21:33N 67°04' E 013°29'1111.3
2015-Jul-05 20:33N 67°14' E 013°44'1211.5
2015-Jul-05 19:33N 67°23' E 014°02'1111.4
2015-Jul-05 18:33N 67°32' E 014°19'1211.7
2015-Jul-05 17:33N 67°41' E 014°39'7 6.8
2015-Jul-05 16:30N 67°48' E 014°44'137 6.9
2015-Jul-04 20:31N 69°34' E 018°46'8 7.8
2015-Jul-04 19:34N 69°40' E 018°58'1 1.0
2015-Jul-04 18:33N 69°41' E 018°59'8 7.6
2015-Jul-04 17:32N 69°34' E 018°48'226 6.6
2015-Jul-03 07:33N 66°40' E 012°22'1010.3
2015-Jul-03 06:33N 66°31' E 012°12'4 3.8
2015-Jul-03 05:33N 66°28' E 012°19'1111.3
2015-Jul-03 04:33N 66°23' E 012°44'16 7.7
2015-Jul-03 02:29N 66°07' E 012°48'5310.5
2015-Jul-02 21:28N 65°18' E 011°60'1011.0
2015-Jul-02 20:33N 65°09' E 011°50'1110.7
2015-Jul-02 19:33N 64°60' E 011°37'1111.0
2015-Jul-02 18:33N 64°53' E 011°18'9 8.9
2015-Jul-02 17:34N 64°45' E 011°06'10 0.3
2015-Jul-01 12:23N 64°36' E 011°01'8 2.8
2015-Jul-01 09:32N 64°44' E 010°57'1110.7
2015-Jul-01 08:33N 64°51' E 011°14'0 0.4
2015-Jul-01 07:33N 64°52' E 011°15'1 1.1
2015-Jul-01 06:33N 64°52' E 011°17'0 0.0
2015-Jul-01 05:33N 64°52' E 011°17'0 0.0
2015-Jul-01 04:33N 64°52' E 011°17'0 0.0
2015-Jul-01 03:33N 64°52' E 011°17'0 0.0
2015-Jul-01 02:33N 64°52' E 011°17'0 0.0
2015-Jul-01 01:34N 64°52' E 011°17'0 0.0
2015-Jul-01 00:33N 64°52' E 011°17'0 0.0
2015-Jun-30 23:33N 64°52' E 011°17'0 0.0
2015-Jun-30 22:33N 64°52' E 011°17'0 0.0
2015-Jun-30 21:33N 64°52' E 011°17'0 0.0
2015-Jun-30 20:33N 64°52' E 011°17'0 0.0
2015-Jun-30 19:34N 64°52' E 011°17'0 0.0
2015-Jun-30 18:33N 64°52' E 011°17'0 0.0
2015-Jun-30 17:33N 64°52' E 011°17'0 0.0
2015-Jun-30 16:33N 64°52' E 011°17'0 0.0
2015-Jun-30 15:33N 64°52' E 011°17'0 0.0
2015-Jun-30 14:33N 64°52' E 011°17'0 0.0
2015-Jun-30 13:33N 64°52' E 011°17'0 0.0
2015-Jun-30 12:33N 64°52' E 011°17'0 0.0
2015-Jun-30 11:33N 64°52' E 011°17'0 0.0
2015-Jun-30 10:33N 64°52' E 011°17'3 3.0
2015-Jun-30 09:33N 64°54' E 011°21'7 7.2
2015-Jun-30 08:33N 64°58' E 011°36'9 9.5
2015-Jun-30 07:34N 64°52' E 011°17'4 3.9
2015-Jun-30 06:33N 64°55' E 011°24'1110.8
2015-Jun-30 05:33N 65°02' E 011°43'1111.3
2015-Jun-30 04:33N 65°13' E 011°53'6911.2
2015-Jun-29 22:22N 66°17' E 012°55'1111.6
2015-Jun-29 21:26N 66°28' E 012°59'31 8.0
2015-Jun-29 17:32N 66°57' E 013°29'1111.4
2015-Jun-29 16:33N 67°03' E 013°52'6 6.3
2015-Jun-29 15:33N 67°09' E 014°01'1 0.7
2015-Jun-29 14:33N 67°09' E 014°02'1111.4
2015-Jun-29 13:33N 67°17' E 014°23'4 4.2
2015-Jun-29 12:33N 67°21' E 014°24'164 9.5
2015-Jun-28 19:15N 69°34' E 018°47'3 0.6
2015-Jun-28 14:27N 69°35' E 018°55'10 0.5
2015-Jun-27 20:17N 69°44' E 019°05'5 6.4
2015-Jun-27 19:33N 69°40' E 018°59'1 0.9
2015-Jun-27 18:33N 69°41' E 018°59'5 5.0
2015-Jun-27 17:33N 69°36' E 018°53'  
Track history (hours):
 
Tides and Currents Weather Stations Pressure Air Temp Water Temp Dewpoint Dewpoint Depression Visibility Wind Speed Wind Dir Waves Ship Positions

Folla

Last reported at 2015-Jul-07 01:33 UTC. Time now 2015-Jul-07 02:31 UTC.
Position N 64°52' E 011°17'.

Length 52 m; draft 5 m.

Type: Cargo ship. MMSI: 258253000.

Date/timePositionNaut miles runAvg speedWind from/ knotsBaromVisibWave heightAir tempDewpointWater temp
2015-Jul-07 01:33N 64°52' E 011°17'0 0.0
2015-Jul-07 00:33N 64°52' E 011°17'0 0.0
2015-Jul-06 23:33N 64°52' E 011°17'0 0.0
2015-Jul-06 22:33N 64°52' E 011°17'0 0.0
2015-Jul-06 21:33N 64°52' E 011°17'0 0.0
2015-Jul-06 20:33N 64°52' E 011°17'0 0.0
2015-Jul-06 19:33N 64°52' E 011°17'0 0.0
2015-Jul-06 18:33N 64°52' E 011°17'0 0.0
2015-Jul-06 17:33N 64°52' E 011°17'0 0.0
2015-Jul-06 16:33N 64°52' E 011°17'0 0.0
2015-Jul-06 15:33N 64°52' E 011°17'0 0.0
2015-Jul-06 14:33N 64°52' E 011°17'0 0.0
2015-Jul-06 13:33N 64°52' E 011°17'0 0.0
2015-Jul-06 12:33N 64°52' E 011°17'0 0.0
2015-Jul-06 11:33N 64°52' E 011°17'9 8.9
2015-Jul-06 10:33N 64°58' E 011°32'1111.2
2015-Jul-06 09:33N 65°07' E 011°48'5711.3
2015-Jul-06 04:31N 66°00' E 012°32'2211.3
2015-Jul-06 02:33N 66°20' E 012°57'1110.5
2015-Jul-06 01:33N 66°31' E 013°00'14 6.7
2015-Jul-05 23:32N 66°43' E 013°12'1111.0
2015-Jul-05 22:33N 66°54' E 013°20'1111.1
2015-Jul-05 21:33N 67°04' E 013°29'1111.3
2015-Jul-05 20:33N 67°14' E 013°44'1211.5
2015-Jul-05 19:33N 67°23' E 014°02'1111.4
2015-Jul-05 18:33N 67°32' E 014°19'1211.7
2015-Jul-05 17:33N 67°41' E 014°39'7 6.8
2015-Jul-05 16:30N 67°48' E 014°44'137 6.9
2015-Jul-04 20:31N 69°34' E 018°46'8 7.8
2015-Jul-04 19:34N 69°40' E 018°58'1 1.0
2015-Jul-04 18:33N 69°41' E 018°59'8 7.6
2015-Jul-04 17:32N 69°34' E 018°48'226 6.6
2015-Jul-03 07:33N 66°40' E 012°22'1010.3
2015-Jul-03 06:33N 66°31' E 012°12'4 3.8
2015-Jul-03 05:33N 66°28' E 012°19'1111.3
2015-Jul-03 04:33N 66°23' E 012°44'16 7.7
2015-Jul-03 02:29N 66°07' E 012°48'5310.5
2015-Jul-02 21:28N 65°18' E 011°60'1011.0
2015-Jul-02 20:33N 65°09' E 011°50'1110.7
2015-Jul-02 19:33N 64°60' E 011°37'1111.0
2015-Jul-02 18:33N 64°53' E 011°18'9 8.9
2015-Jul-02 17:34N 64°45' E 011°06'10 0.3
2015-Jul-01 12:23N 64°36' E 011°01'8 2.8
2015-Jul-01 09:32N 64°44' E 010°57'1110.7
2015-Jul-01 08:33N 64°51' E 011°14'0 0.4
2015-Jul-01 07:33N 64°52' E 011°15'1 1.1
2015-Jul-01 06:33N 64°52' E 011°17'0 0.0
2015-Jul-01 05:33N 64°52' E 011°17'0 0.0
2015-Jul-01 04:33N 64°52' E 011°17'0 0.0
2015-Jul-01 03:33N 64°52' E 011°17'0 0.0
2015-Jul-01 02:33N 64°52' E 011°17'0 0.0
2015-Jul-01 01:34N 64°52' E 011°17'0 0.0
2015-Jul-01 00:33N 64°52' E 011°17'0 0.0
2015-Jun-30 23:33N 64°52' E 011°17'0 0.0
2015-Jun-30 22:33N 64°52' E 011°17'0 0.0
2015-Jun-30 21:33N 64°52' E 011°17'0 0.0
2015-Jun-30 20:33N 64°52' E 011°17'0 0.0
2015-Jun-30 19:34N 64°52' E 011°17'0 0.0
2015-Jun-30 18:33N 64°52' E 011°17'0 0.0
2015-Jun-30 17:33N 64°52' E 011°17'0 0.0
2015-Jun-30 16:33N 64°52' E 011°17'0 0.0
2015-Jun-30 15:33N 64°52' E 011°17'0 0.0
2015-Jun-30 14:33N 64°52' E 011°17'0 0.0
2015-Jun-30 13:33N 64°52' E 011°17'0 0.0
2015-Jun-30 12:33N 64°52' E 011°17'0 0.0
2015-Jun-30 11:33N 64°52' E 011°17'0 0.0
2015-Jun-30 10:33N 64°52' E 011°17'3 3.0
2015-Jun-30 09:33N 64°54' E 011°21'7 7.2
2015-Jun-30 08:33N 64°58' E 011°36'9 9.5
2015-Jun-30 07:34N 64°52' E 011°17'4 3.9
2015-Jun-30 06:33N 64°55' E 011°24'1110.8
2015-Jun-30 05:33N 65°02' E 011°43'1111.3
2015-Jun-30 04:33N 65°13' E 011°53'6911.2
2015-Jun-29 22:22N 66°17' E 012°55'1111.6
2015-Jun-29 21:26N 66°28' E 012°59'31 8.0
2015-Jun-29 17:32N 66°57' E 013°29'1111.4
2015-Jun-29 16:33N 67°03' E 013°52'6 6.3
2015-Jun-29 15:33N 67°09' E 014°01'1 0.7
2015-Jun-29 14:33N 67°09' E 014°02'1111.4
2015-Jun-29 13:33N 67°17' E 014°23'4 4.2
2015-Jun-29 12:33N 67°21' E 014°24'164 9.5
2015-Jun-28 19:15N 69°34' E 018°47'3 0.6
2015-Jun-28 14:27N 69°35' E 018°55'10 0.5
2015-Jun-27 20:17N 69°44' E 019°05'5 6.4
2015-Jun-27 19:33N 69°40' E 018°59'1 0.9
2015-Jun-27 18:33N 69°41' E 018°59'5 5.0
2015-Jun-27 17:33N 69°36' E 018°53'  

Dump ship's entire track history